sensor_id;sensor_type;location;lat;lon;timestamp;pressure;altitude;pressure_sealevel;temperature;humidity
34742;BME280;20968;42.696;23.360;2023-04-27T00:00:38;94938.59;;;9.90;52.00
34742;BME280;20968;42.696;23.360;2023-04-27T00:03:03;94930.25;;;9.84;51.49
34742;BME280;20968;42.696;23.360;2023-04-27T00:05:36;94952.25;;;9.84;51.36
34742;BME280;20968;42.696;23.360;2023-04-27T00:08:06;94946.97;;;9.81;51.71
34742;BME280;20968;42.696;23.360;2023-04-27T00:10:32;94948.69;;;9.78;51.99
34742;BME280;20968;42.696;23.360;2023-04-27T00:12:57;94947.38;;;9.74;51.35
34742;BME280;20968;42.696;23.360;2023-04-27T00:15:23;94952.72;;;9.63;51.83
34742;BME280;20968;42.696;23.360;2023-04-27T00:17:48;94941.63;;;9.57;52.20
34742;BME280;20968;42.696;23.360;2023-04-27T00:20:14;94953.66;;;9.60;51.61
34742;BME280;20968;42.696;23.360;2023-04-27T00:22:39;94951.22;;;9.47;52.87
34742;BME280;20968;42.696;23.360;2023-04-27T00:25:05;94949.63;;;9.41;51.74
34742;BME280;20968;42.696;23.360;2023-04-27T00:27:31;94953.88;;;9.42;52.57
34742;BME280;20968;42.696;23.360;2023-04-27T00:29:56;94955.56;;;9.39;51.81
34742;BME280;20968;42.696;23.360;2023-04-27T00:32:22;94947.25;;;9.34;52.31
34742;BME280;20968;42.696;23.360;2023-04-27T00:34:47;94952.47;;;9.32;51.88
34742;BME280;20968;42.696;23.360;2023-04-27T00:37:12;94952.75;;;9.20;52.74
34742;BME280;20968;42.696;23.360;2023-04-27T00:39:38;94948.59;;;9.24;52.74
34742;BME280;20968;42.696;23.360;2023-04-27T00:42:03;94947.81;;;9.24;52.40
34742;BME280;20968;42.696;23.360;2023-04-27T00:44:29;94953.50;;;9.34;52.81
34742;BME280;20968;42.696;23.360;2023-04-27T00:46:54;94963.72;;;9.34;52.44
34742;BME280;20968;42.696;23.360;2023-04-27T00:49:20;94951.91;;;9.28;52.55
34742;BME280;20968;42.696;23.360;2023-04-27T00:51:48;94958.63;;;9.27;52.93
34742;BME280;20968;42.696;23.360;2023-04-27T00:54:14;94959.97;;;9.17;52.27
34742;BME280;20968;42.696;23.360;2023-04-27T00:56:43;94953.16;;;9.13;52.52
34742;BME280;20968;42.696;23.360;2023-04-27T00:59:08;94967.81;;;9.10;52.64
34742;BME280;20968;42.696;23.360;2023-04-27T01:01:34;94965.25;;;9.06;53.91
34742;BME280;20968;42.696;23.360;2023-04-27T01:04:02;94971.22;;;9.05;52.67
34742;BME280;20968;42.696;23.360;2023-04-27T01:06:27;94963.66;;;9.00;52.94
34742;BME280;20968;42.696;23.360;2023-04-27T01:08:54;94976.72;;;9.05;52.93
34742;BME280;20968;42.696;23.360;2023-04-27T01:11:20;94966.22;;;9.03;52.86
34742;BME280;20968;42.696;23.360;2023-04-27T01:13:45;94976.25;;;9.06;53.01
34742;BME280;20968;42.696;23.360;2023-04-27T01:16:11;94977.47;;;9.05;52.95
34742;BME280;20968;42.696;23.360;2023-04-27T01:18:36;94961.97;;;9.02;53.11
34742;BME280;20968;42.696;23.360;2023-04-27T01:21:04;94970.75;;;9.06;52.75
34742;BME280;20968;42.696;23.360;2023-04-27T01:23:30;94979.94;;;9.03;53.87
34742;BME280;20968;42.696;23.360;2023-04-27T01:25:55;94970.56;;;8.95;53.96
34742;BME280;20968;42.696;23.360;2023-04-27T01:28:21;94972.44;;;8.89;53.50
34742;BME280;20968;42.696;23.360;2023-04-27T01:30:46;94987.03;;;8.95;53.35
34742;BME280;20968;42.696;23.360;2023-04-27T01:33:11;94982.97;;;8.91;53.56
34742;BME280;20968;42.696;23.360;2023-04-27T01:35:37;94973.97;;;8.76;53.02
34742;BME280;20968;42.696;23.360;2023-04-27T01:38:02;94978.84;;;8.72;53.45
34742;BME280;20968;42.696;23.360;2023-04-27T01:40:28;94987.56;;;8.70;54.34
34742;BME280;20968;42.696;23.360;2023-04-27T01:42:53;94991.16;;;8.76;53.85
34742;BME280;20968;42.696;23.360;2023-04-27T01:45:18;94994.84;;;8.73;54.46
34742;BME280;20968;42.696;23.360;2023-04-27T01:47:44;94993.91;;;8.76;53.69
34742;BME280;20968;42.696;23.360;2023-04-27T01:50:09;94989.84;;;8.72;53.65
34742;BME280;20968;42.696;23.360;2023-04-27T01:52:35;94998.72;;;8.67;53.29
34742;BME280;20968;42.696;23.360;2023-04-27T01:55:01;94990.97;;;8.65;54.00
34742;BME280;20968;42.696;23.360;2023-04-27T01:57:26;95005.34;;;8.60;54.20
34742;BME280;20968;42.696;23.360;2023-04-27T01:59:52;94985.75;;;8.53;53.74
34742;BME280;20968;42.696;23.360;2023-04-27T02:02:17;95003.06;;;8.59;54.10
34742;BME280;20968;42.696;23.360;2023-04-27T02:04:42;94986.66;;;8.50;54.63
34742;BME280;20968;42.696;23.360;2023-04-27T02:07:09;94994.16;;;8.50;53.84
34742;BME280;20968;42.696;23.360;2023-04-27T02:09:35;95004.16;;;8.52;54.10
34742;BME280;20968;42.696;23.360;2023-04-27T02:12:00;94993.56;;;8.46;53.80
34742;BME280;20968;42.696;23.360;2023-04-27T02:14:27;94989.03;;;8.43;53.91
34742;BME280;20968;42.696;23.360;2023-04-27T02:16:53;95000.75;;;8.43;53.83
34742;BME280;20968;42.696;23.360;2023-04-27T02:19:18;95003.97;;;8.42;54.17
34742;BME280;20968;42.696;23.360;2023-04-27T02:21:44;95001.50;;;8.44;53.44
34742;BME280;20968;42.696;23.360;2023-04-27T02:24:09;95005.69;;;8.53;54.19
34742;BME280;20968;42.696;23.360;2023-04-27T02:26:34;95002.38;;;8.50;54.08
34742;BME280;20968;42.696;23.360;2023-04-27T02:29:00;94997.25;;;8.43;53.93
34742;BME280;20968;42.696;23.360;2023-04-27T02:31:26;94986.28;;;8.43;53.41
34742;BME280;20968;42.696;23.360;2023-04-27T02:33:51;94991.66;;;8.37;54.38
34742;BME280;20968;42.696;23.360;2023-04-27T02:36:17;95006.72;;;8.42;53.54
34742;BME280;20968;42.696;23.360;2023-04-27T02:38:42;94998.66;;;8.38;54.21
34742;BME280;20968;42.696;23.360;2023-04-27T02:41:08;94995.78;;;8.33;54.46
34742;BME280;20968;42.696;23.360;2023-04-27T02:43:33;95001.28;;;8.33;54.67
34742;BME280;20968;42.696;23.360;2023-04-27T02:46:05;95001.84;;;8.37;53.97
34742;BME280;20968;42.696;23.360;2023-04-27T02:48:30;94995.38;;;8.25;53.73
34742;BME280;20968;42.696;23.360;2023-04-27T02:50:56;95002.84;;;8.25;54.67
34742;BME280;20968;42.696;23.360;2023-04-27T02:53:21;95008.34;;;8.25;54.93
34742;BME280;20968;42.696;23.360;2023-04-27T02:55:47;95001.69;;;8.17;54.00
34742;BME280;20968;42.696;23.360;2023-04-27T02:58:13;94998.31;;;8.13;54.33
34742;BME280;20968;42.696;23.360;2023-04-27T03:00:38;95015.97;;;8.21;54.16
34742;BME280;20968;42.696;23.360;2023-04-27T03:03:06;95022.41;;;8.18;54.27
34742;BME280;20968;42.696;23.360;2023-04-27T03:05:32;95010.66;;;8.17;53.84
34742;BME280;20968;42.696;23.360;2023-04-27T03:07:57;95017.13;;;8.29;53.69
34742;BME280;20968;42.696;23.360;2023-04-27T03:10:26;95028.59;;;8.27;54.12
34742;BME280;20968;42.696;23.360;2023-04-27T03:12:51;95023.63;;;8.17;53.44
34742;BME280;20968;42.696;23.360;2023-04-27T03:15:17;95017.84;;;8.15;53.51
34742;BME280;20968;42.696;23.360;2023-04-27T03:17:42;95017.59;;;8.04;54.24
34742;BME280;20968;42.696;23.360;2023-04-27T03:20:08;95019.19;;;8.10;54.26
34742;BME280;20968;42.696;23.360;2023-04-27T03:22:37;95024.84;;;8.16;54.49
34742;BME280;20968;42.696;23.360;2023-04-27T03:25:03;95034.03;;;8.04;53.45
34742;BME280;20968;42.696;23.360;2023-04-27T03:27:29;95031.13;;;8.07;54.26
34742;BME280;20968;42.696;23.360;2023-04-27T03:29:54;95029.06;;;7.93;54.05
34742;BME280;20968;42.696;23.360;2023-04-27T03:32:20;95036.47;;;8.02;53.95
34742;BME280;20968;42.696;23.360;2023-04-27T03:34:46;95044.69;;;8.02;54.37
34742;BME280;20968;42.696;23.360;2023-04-27T03:37:11;95048.69;;;7.92;54.26
34742;BME280;20968;42.696;23.360;2023-04-27T03:39:37;95047.50;;;7.84;54.73
34742;BME280;20968;42.696;23.360;2023-04-27T03:42:03;95046.47;;;7.81;54.87
34742;BME280;20968;42.696;23.360;2023-04-27T03:44:45;95049.03;;;7.85;54.62
34742;BME280;20968;42.696;23.360;2023-04-27T03:47:10;95042.69;;;7.70;54.81
34742;BME280;20968;42.696;23.360;2023-04-27T03:49:36;95052.75;;;7.73;54.67
34742;BME280;20968;42.696;23.360;2023-04-27T03:52:02;95058.22;;;7.73;54.74
34742;BME280;20968;42.696;23.360;2023-04-27T03:54:29;95060.50;;;7.74;54.81
34742;BME280;20968;42.696;23.360;2023-04-27T03:56:55;95052.00;;;7.64;55.45
34742;BME280;20968;42.696;23.360;2023-04-27T03:59:21;95065.41;;;7.71;55.46
34742;BME280;20968;42.696;23.360;2023-04-27T04:01:47;95066.88;;;7.71;55.00
34742;BME280;20968;42.696;23.360;2023-04-27T04:04:12;95076.78;;;7.78;55.30
34742;BME280;20968;42.696;23.360;2023-04-27T04:06:38;95081.53;;;7.69;54.77
34742;BME280;20968;42.696;23.360;2023-04-27T04:09:03;95078.63;;;7.72;55.35
34742;BME280;20968;42.696;23.360;2023-04-27T04:11:33;95087.00;;;7.77;54.54
34742;BME280;20968;42.696;23.360;2023-04-27T04:14:08;95090.31;;;7.81;53.77
34742;BME280;20968;42.696;23.360;2023-04-27T04:16:38;95090.75;;;7.89;54.74
34742;BME280;20968;42.696;23.360;2023-04-27T04:19:04;95092.84;;;7.94;54.64
34742;BME280;20968;42.696;23.360;2023-04-27T04:21:29;95095.69;;;8.08;53.99
34742;BME280;20968;42.696;23.360;2023-04-27T04:23:56;95096.06;;;7.92;54.06
34742;BME280;20968;42.696;23.360;2023-04-27T04:26:21;95094.00;;;8.11;55.19
34742;BME280;20968;42.696;23.360;2023-04-27T04:28:47;95098.38;;;8.26;56.41
34742;BME280;20968;42.696;23.360;2023-04-27T04:31:13;95103.72;;;8.21;54.60
34742;BME280;20968;42.696;23.360;2023-04-27T04:33:41;95100.53;;;8.22;57.45
34742;BME280;20968;42.696;23.360;2023-04-27T04:36:07;95101.78;;;8.45;55.25
34742;BME280;20968;42.696;23.360;2023-04-27T04:38:32;95099.63;;;8.72;60.70
34742;BME280;20968;42.696;23.360;2023-04-27T04:40:59;95114.28;;;8.92;57.46
34742;BME280;20968;42.696;23.360;2023-04-27T04:43:25;95112.88;;;8.97;54.60
34742;BME280;20968;42.696;23.360;2023-04-27T04:45:50;95107.88;;;9.10;54.69
34742;BME280;20968;42.696;23.360;2023-04-27T04:48:16;95109.75;;;9.04;51.04
34742;BME280;20968;42.696;23.360;2023-04-27T04:50:45;95127.16;;;9.01;52.00
34742;BME280;20968;42.696;23.360;2023-04-27T04:53:11;95128.00;;;8.92;52.16
34742;BME280;20968;42.696;23.360;2023-04-27T04:55:37;95120.84;;;8.71;52.37
34742;BME280;20968;42.696;23.360;2023-04-27T04:58:04;95137.66;;;8.64;51.58
34742;BME280;20968;42.696;23.360;2023-04-27T05:00:29;95136.69;;;8.67;51.74
34742;BME280;20968;42.696;23.360;2023-04-27T05:02:55;95141.84;;;8.74;52.36
34742;BME280;20968;42.696;23.360;2023-04-27T05:05:20;95140.97;;;8.68;52.71
34742;BME280;20968;42.696;23.360;2023-04-27T05:07:46;95143.72;;;8.68;52.55
34742;BME280;20968;42.696;23.360;2023-04-27T05:10:11;95150.81;;;8.51;52.66
34742;BME280;20968;42.696;23.360;2023-04-27T05:12:37;95148.69;;;8.55;53.05
34742;BME280;20968;42.696;23.360;2023-04-27T05:15:03;95150.63;;;8.55;52.47
34742;BME280;20968;42.696;23.360;2023-04-27T05:17:29;95149.50;;;8.70;52.63
34742;BME280;20968;42.696;23.360;2023-04-27T05:20:09;95162.56;;;8.75;52.95
34742;BME280;20968;42.696;23.360;2023-04-27T05:22:35;95162.34;;;8.88;52.31
34742;BME280;20968;42.696;23.360;2023-04-27T05:25:11;95154.25;;;8.93;51.85
34742;BME280;20968;42.696;23.360;2023-04-27T05:27:37;95156.00;;;8.82;51.94
34742;BME280;20968;42.696;23.360;2023-04-27T05:30:02;95164.00;;;8.94;51.68
34742;BME280;20968;42.696;23.360;2023-04-27T05:32:28;95160.31;;;8.97;52.56
34742;BME280;20968;42.696;23.360;2023-04-27T05:34:53;95161.88;;;8.89;52.07
34742;BME280;20968;42.696;23.360;2023-04-27T05:37:20;95166.75;;;8.94;51.74
34742;BME280;20968;42.696;23.360;2023-04-27T05:39:45;95155.47;;;8.92;51.65
34742;BME280;20968;42.696;23.360;2023-04-27T05:42:11;95160.41;;;9.03;51.46
34742;BME280;20968;42.696;23.360;2023-04-27T05:44:36;95158.72;;;9.05;51.99
34742;BME280;20968;42.696;23.360;2023-04-27T05:47:01;95162.41;;;9.02;51.63
34742;BME280;20968;42.696;23.360;2023-04-27T05:49:27;95174.63;;;9.01;51.60
34742;BME280;20968;42.696;23.360;2023-04-27T05:51:52;95164.75;;;8.95;51.68
34742;BME280;20968;42.696;23.360;2023-04-27T05:54:18;95168.28;;;8.95;52.00
34742;BME280;20968;42.696;23.360;2023-04-27T05:56:43;95157.19;;;9.04;51.41
34742;BME280;20968;42.696;23.360;2023-04-27T05:59:09;95173.78;;;9.10;51.21
34742;BME280;20968;42.696;23.360;2023-04-27T06:01:34;95168.59;;;9.12;51.47
34742;BME280;20968;42.696;23.360;2023-04-27T06:04:00;95172.69;;;9.16;51.44
34742;BME280;20968;42.696;23.360;2023-04-27T06:06:26;95160.88;;;9.25;51.25
34742;BME280;20968;42.696;23.360;2023-04-27T06:08:52;95174.19;;;9.40;51.04
34742;BME280;20968;42.696;23.360;2023-04-27T06:11:17;95172.31;;;9.61;51.16
34742;BME280;20968;42.696;23.360;2023-04-27T06:13:43;95174.31;;;9.75;50.14
34742;BME280;20968;42.696;23.360;2023-04-27T06:16:08;95167.31;;;9.74;50.17
34742;BME280;20968;42.696;23.360;2023-04-27T06:18:34;95168.81;;;9.75;50.03
34742;BME280;20968;42.696;23.360;2023-04-27T06:21:00;95172.88;;;9.65;49.98
34742;BME280;20968;42.696;23.360;2023-04-27T06:23:26;95175.75;;;9.56;50.39
34742;BME280;20968;42.696;23.360;2023-04-27T06:25:51;95169.94;;;9.54;50.30
34742;BME280;20968;42.696;23.360;2023-04-27T06:28:17;95171.47;;;9.69;50.54
34742;BME280;20968;42.696;23.360;2023-04-27T06:30:42;95160.78;;;9.71;49.82
34742;BME280;20968;42.696;23.360;2023-04-27T06:33:07;95170.94;;;9.94;50.19
34742;BME280;20968;42.696;23.360;2023-04-27T06:35:33;95158.16;;;10.06;50.17
34742;BME280;20968;42.696;23.360;2023-04-27T06:37:58;95160.63;;;10.18;50.11
34742;BME280;20968;42.696;23.360;2023-04-27T06:40:25;95160.72;;;10.23;50.02
34742;BME280;20968;42.696;23.360;2023-04-27T06:42:57;95150.59;;;10.49;49.01
34742;BME280;20968;42.696;23.360;2023-04-27T06:45:22;95163.56;;;10.63;47.67
34742;BME280;20968;42.696;23.360;2023-04-27T06:47:47;95155.97;;;10.73;47.77
34742;BME280;20968;42.696;23.360;2023-04-27T06:50:13;95155.13;;;11.01;47.34
34742;BME280;20968;42.696;23.360;2023-04-27T06:52:40;95155.72;;;11.30;47.12
34742;BME280;20968;42.696;23.360;2023-04-27T06:55:05;95152.34;;;11.41;45.50
34742;BME280;20968;42.696;23.360;2023-04-27T06:57:31;95154.63;;;11.42;45.50
34742;BME280;20968;42.696;23.360;2023-04-27T06:59:56;95154.13;;;11.44;44.93
34742;BME280;20968;42.696;23.360;2023-04-27T07:02:21;95160.41;;;11.44;45.26
34742;BME280;20968;42.696;23.360;2023-04-27T07:04:47;95152.41;;;11.46;45.05
34742;BME280;20968;42.696;23.360;2023-04-27T07:07:12;95156.00;;;11.72;44.43
34742;BME280;20968;42.696;23.360;2023-04-27T07:09:38;95137.78;;;11.60;44.42
34742;BME280;20968;42.696;23.360;2023-04-27T07:12:03;95141.47;;;11.52;44.92
34742;BME280;20968;42.696;23.360;2023-04-27T07:14:29;95140.84;;;11.62;44.89
34742;BME280;20968;42.696;23.360;2023-04-27T07:16:55;95147.94;;;11.68;43.95
34742;BME280;20968;42.696;23.360;2023-04-27T07:19:20;95146.84;;;11.86;44.59
34742;BME280;20968;42.696;23.360;2023-04-27T07:21:46;95145.38;;;11.90;43.30
34742;BME280;20968;42.696;23.360;2023-04-27T07:24:11;95149.97;;;11.73;44.88
34742;BME280;20968;42.696;23.360;2023-04-27T07:26:36;95140.28;;;11.58;44.45
34742;BME280;20968;42.696;23.360;2023-04-27T07:29:02;95140.47;;;11.55;45.21
34742;BME280;20968;42.696;23.360;2023-04-27T07:31:28;95139.75;;;11.54;45.39
34742;BME280;20968;42.696;23.360;2023-04-27T07:33:53;95147.44;;;11.70;45.69
34742;BME280;20968;42.696;23.360;2023-04-27T07:36:19;95143.00;;;11.78;44.80
34742;BME280;20968;42.696;23.360;2023-04-27T07:38:44;95148.75;;;11.74;44.71
34742;BME280;20968;42.696;23.360;2023-04-27T07:41:10;95136.06;;;11.63;45.03
34742;BME280;20968;42.696;23.360;2023-04-27T07:43:36;95136.41;;;11.50;44.62
34742;BME280;20968;42.696;23.360;2023-04-27T07:46:01;95150.34;;;11.61;45.50
34742;BME280;20968;42.696;23.360;2023-04-27T07:48:29;95143.91;;;11.50;44.83
34742;BME280;20968;42.696;23.360;2023-04-27T07:50:55;95139.34;;;11.47;45.11
34742;BME280;20968;42.696;23.360;2023-04-27T07:53:23;95142.22;;;11.77;44.84
34742;BME280;20968;42.696;23.360;2023-04-27T07:55:48;95150.09;;;12.10;43.28
34742;BME280;20968;42.696;23.360;2023-04-27T07:58:14;95144.72;;;12.26;42.70
34742;BME280;20968;42.696;23.360;2023-04-27T08:00:40;95139.56;;;12.44;41.98
34742;BME280;20968;42.696;23.360;2023-04-27T08:03:05;95135.88;;;12.53;43.12
34742;BME280;20968;42.696;23.360;2023-04-27T08:05:31;95141.75;;;12.66;41.99
34742;BME280;20968;42.696;23.360;2023-04-27T08:07:57;95141.59;;;12.44;41.70
34742;BME280;20968;42.696;23.360;2023-04-27T08:10:22;95128.38;;;12.23;42.19
34742;BME280;20968;42.696;23.360;2023-04-27T08:12:48;95146.22;;;12.58;42.76
34742;BME280;20968;42.696;23.360;2023-04-27T08:15:13;95148.09;;;12.77;40.68
34742;BME280;20968;42.696;23.360;2023-04-27T08:17:39;95136.03;;;12.75;41.89
34742;BME280;20968;42.696;23.360;2023-04-27T08:20:06;95145.84;;;12.81;41.10
34742;BME280;20968;42.696;23.360;2023-04-27T08:22:32;95138.19;;;12.91;40.46
34742;BME280;20968;42.696;23.360;2023-04-27T08:24:58;95142.09;;;13.21;40.19
34742;BME280;20968;42.696;23.360;2023-04-27T08:27:24;95149.28;;;13.54;40.63
34742;BME280;20968;42.696;23.360;2023-04-27T08:29:50;95139.75;;;13.72;40.19
34742;BME280;20968;42.696;23.360;2023-04-27T08:32:16;95152.59;;;13.69;39.60
34742;BME280;20968;42.696;23.360;2023-04-27T08:34:41;95141.81;;;13.77;40.46
34742;BME280;20968;42.696;23.360;2023-04-27T08:37:09;95145.38;;;14.10;39.74
34742;BME280;20968;42.696;23.360;2023-04-27T08:39:36;95143.66;;;14.18;38.66
34742;BME280;20968;42.696;23.360;2023-04-27T08:42:09;95145.19;;;14.19;38.99
34742;BME280;20968;42.696;23.360;2023-04-27T08:44:40;95140.41;;;14.25;38.66
34742;BME280;20968;42.696;23.360;2023-04-27T08:47:14;95145.91;;;14.14;39.10
34742;BME280;20968;42.696;23.360;2023-04-27T08:49:47;95149.09;;;13.85;39.86
34742;BME280;20968;42.696;23.360;2023-04-27T08:52:13;95142.06;;;13.90;39.79
34742;BME280;20968;42.696;23.360;2023-04-27T08:54:39;95141.09;;;14.03;39.90
34742;BME280;20968;42.696;23.360;2023-04-27T08:57:09;95142.16;;;14.33;38.82
34742;BME280;20968;42.696;23.360;2023-04-27T08:59:35;95140.13;;;14.39;39.35
34742;BME280;20968;42.696;23.360;2023-04-27T09:02:02;95135.88;;;14.60;39.00
34742;BME280;20968;42.696;23.360;2023-04-27T09:04:38;95138.13;;;14.29;38.62
34742;BME280;20968;42.696;23.360;2023-04-27T09:07:14;95151.16;;;14.01;38.65
34742;BME280;20968;42.696;23.360;2023-04-27T09:09:40;95134.53;;;13.96;41.13
34742;BME280;20968;42.696;23.360;2023-04-27T09:12:20;95141.59;;;14.02;39.62
34742;BME280;20968;42.696;23.360;2023-04-27T09:15:02;95132.94;;;13.67;40.06
34742;BME280;20968;42.696;23.360;2023-04-27T09:17:28;95134.94;;;13.61;40.21
34742;BME280;20968;42.696;23.360;2023-04-27T09:20:08;95134.50;;;13.79;40.83
34742;BME280;20968;42.696;23.360;2023-04-27T09:25:08;95123.97;;;13.94;39.34
34742;BME280;20968;42.696;23.360;2023-04-27T09:27:37;95135.78;;;13.95;40.09
34742;BME280;20968;42.696;23.360;2023-04-27T09:30:12;95140.28;;;13.87;39.34
34742;BME280;20968;42.696;23.360;2023-04-27T09:32:37;95130.03;;;14.09;41.03
34742;BME280;20968;42.696;23.360;2023-04-27T09:35:12;95120.97;;;14.69;37.83
34742;BME280;20968;42.696;23.360;2023-04-27T09:37:38;95127.47;;;14.98;37.44
34742;BME280;20968;42.696;23.360;2023-04-27T09:40:04;95120.13;;;15.17;36.64
34742;BME280;20968;42.696;23.360;2023-04-27T09:42:30;95111.78;;;15.28;36.11
34742;BME280;20968;42.696;23.360;2023-04-27T09:44:56;95107.06;;;15.07;36.65
34742;BME280;20968;42.696;23.360;2023-04-27T09:47:23;95098.81;;;14.69;36.44
34742;BME280;20968;42.696;23.360;2023-04-27T09:49:49;95101.13;;;14.32;37.79
34742;BME280;20968;42.696;23.360;2023-04-27T09:52:15;95086.25;;;14.35;38.11
34742;BME280;20968;42.696;23.360;2023-04-27T09:54:41;95095.56;;;14.26;38.46
34742;BME280;20968;42.696;23.360;2023-04-27T10:08:28;95100.75;;;13.64;39.46
34742;BME280;20968;42.696;23.360;2023-04-27T10:10:53;95103.06;;;13.77;40.04
34742;BME280;20968;42.696;23.360;2023-04-27T10:13:23;95092.47;;;13.81;40.39
34742;BME280;20968;42.696;23.360;2023-04-27T10:15:50;95098.53;;;13.90;38.76
34742;BME280;20968;42.696;23.360;2023-04-27T10:18:29;95104.59;;;14.05;39.14
34742;BME280;20968;42.696;23.360;2023-04-27T10:20:55;95096.56;;;14.12;38.29
34742;BME280;20968;42.696;23.360;2023-04-27T10:23:25;95107.91;;;14.47;37.79
34742;BME280;20968;42.696;23.360;2023-04-27T10:25:52;95086.47;;;14.75;37.72
34742;BME280;20968;42.696;23.360;2023-04-27T10:28:18;95097.28;;;14.84;36.62
34742;BME280;20968;42.696;23.360;2023-04-27T10:30:46;95100.28;;;14.91;37.72
34742;BME280;20968;42.696;23.360;2023-04-27T10:33:17;95087.66;;;14.90;36.97
34742;BME280;20968;42.696;23.360;2023-04-27T10:36:04;95082.16;;;14.79;36.96
34742;BME280;20968;42.696;23.360;2023-04-27T10:38:39;95090.97;;;14.89;35.34
34742;BME280;20968;42.696;23.360;2023-04-27T10:41:12;95090.47;;;14.79;35.31
34742;BME280;20968;42.696;23.360;2023-04-27T10:43:38;95082.19;;;14.69;36.18
34742;BME280;20968;42.696;23.360;2023-04-27T10:46:18;95086.47;;;14.75;37.11
34742;BME280;20968;42.696;23.360;2023-04-27T10:48:44;95093.00;;;14.83;37.19
34742;BME280;20968;42.696;23.360;2023-04-27T10:51:14;95088.22;;;14.73;36.75
34742;BME280;20968;42.696;23.360;2023-04-27T10:53:40;95075.91;;;14.63;35.50
34742;BME280;20968;42.696;23.360;2023-04-27T10:56:26;95087.19;;;14.92;35.87
34742;BME280;20968;42.696;23.360;2023-04-27T10:59:04;95083.63;;;14.97;37.36
34742;BME280;20968;42.696;23.360;2023-04-27T11:01:33;95080.66;;;14.78;35.08
34742;BME280;20968;42.696;23.360;2023-04-27T11:03:59;95086.44;;;14.80;35.82
34742;BME280;20968;42.696;23.360;2023-04-27T11:06:25;95065.81;;;14.65;36.90
34742;BME280;20968;42.696;23.360;2023-04-27T11:08:52;95072.59;;;14.64;35.67
34742;BME280;20968;42.696;23.360;2023-04-27T11:11:18;95080.19;;;14.58;35.69
34742;BME280;20968;42.696;23.360;2023-04-27T11:13:44;95087.00;;;14.46;36.12
34742;BME280;20968;42.696;23.360;2023-04-27T11:16:10;95078.44;;;14.39;35.77
34742;BME280;20968;42.696;23.360;2023-04-27T11:18:56;95092.03;;;14.15;36.85
34742;BME280;20968;42.696;23.360;2023-04-27T11:21:45;95080.16;;;13.98;36.58
34742;BME280;20968;42.696;23.360;2023-04-27T11:27:48;95079.72;;;14.21;36.70
34742;BME280;20968;42.696;23.360;2023-04-27T11:30:39;95095.56;;;14.32;36.68
34742;BME280;20968;42.696;23.360;2023-04-27T11:33:10;95097.34;;;14.24;36.71
34742;BME280;20968;42.696;23.360;2023-04-27T11:35:51;95082.22;;;14.25;37.09
34742;BME280;20968;42.696;23.360;2023-04-27T11:38:32;95095.06;;;14.33;36.77
34742;BME280;20968;42.696;23.360;2023-04-27T11:41:06;95094.31;;;14.33;37.05
34742;BME280;20968;42.696;23.360;2023-04-27T11:43:47;95097.56;;;14.37;36.99
34742;BME280;20968;42.696;23.360;2023-04-27T11:46:14;95094.06;;;14.36;36.72
34742;BME280;20968;42.696;23.360;2023-04-27T11:48:39;95087.00;;;14.41;35.91
34742;BME280;20968;42.696;23.360;2023-04-27T11:51:09;95100.34;;;14.53;36.70
34742;BME280;20968;42.696;23.360;2023-04-27T11:57:03;95091.00;;;14.51;36.48
34742;BME280;20968;42.696;23.360;2023-04-27T11:59:54;95089.50;;;14.72;36.06
34742;BME280;20968;42.696;23.360;2023-04-27T12:05:29;95081.66;;;14.76;36.43
34742;BME280;20968;42.696;23.360;2023-04-27T12:11:40;95089.28;;;14.48;36.17
34742;BME280;20968;42.696;23.360;2023-04-27T12:14:05;95093.28;;;14.36;36.22
34742;BME280;20968;42.696;23.360;2023-04-27T12:16:32;95101.13;;;14.37;35.78
34742;BME280;20968;42.696;23.360;2023-04-27T12:19:14;95110.94;;;14.33;36.65
34742;BME280;20968;42.696;23.360;2023-04-27T12:21:39;95105.88;;;14.31;36.43
34742;BME280;20968;42.696;23.360;2023-04-27T12:24:05;95098.59;;;14.34;37.28
34742;BME280;20968;42.696;23.360;2023-04-27T12:26:30;95108.91;;;14.72;36.12
34742;BME280;20968;42.696;23.360;2023-04-27T12:29:00;95096.50;;;14.83;34.40
34742;BME280;20968;42.696;23.360;2023-04-27T12:31:27;95098.22;;;14.97;35.12
34742;BME280;20968;42.696;23.360;2023-04-27T12:33:53;95102.31;;;14.85;34.78
34742;BME280;20968;42.696;23.360;2023-04-27T12:36:20;95110.13;;;14.87;35.49
34742;BME280;20968;42.696;23.360;2023-04-27T12:38:49;95095.56;;;14.65;35.94
34742;BME280;20968;42.696;23.360;2023-04-27T12:41:19;95109.16;;;14.68;35.53
34742;BME280;20968;42.696;23.360;2023-04-27T12:43:46;95106.63;;;14.59;35.16
34742;BME280;20968;42.696;23.360;2023-04-27T12:46:12;95112.66;;;14.69;36.00
34742;BME280;20968;42.696;23.360;2023-04-27T12:48:38;95113.44;;;14.64;35.49
34742;BME280;20968;42.696;23.360;2023-04-27T12:51:03;95104.88;;;14.73;35.54
34742;BME280;20968;42.696;23.360;2023-04-27T12:53:29;95104.88;;;14.56;36.03
34742;BME280;20968;42.696;23.360;2023-04-27T12:55:54;95114.22;;;14.53;36.17
34742;BME280;20968;42.696;23.360;2023-04-27T12:58:20;95115.94;;;14.51;36.35
34742;BME280;20968;42.696;23.360;2023-04-27T13:00:47;95113.22;;;14.45;36.21
34742;BME280;20968;42.696;23.360;2023-04-27T13:03:16;95105.88;;;14.64;35.63
34742;BME280;20968;42.696;23.360;2023-04-27T13:05:43;95113.88;;;14.89;35.35
34742;BME280;20968;42.696;23.360;2023-04-27T13:08:13;95106.59;;;14.76;35.60
34742;BME280;20968;42.696;23.360;2023-04-27T13:10:40;95101.53;;;14.85;35.89
34742;BME280;20968;42.696;23.360;2023-04-27T13:13:07;95094.19;;;15.04;35.65
34742;BME280;20968;42.696;23.360;2023-04-27T13:15:33;95103.75;;;15.14;35.10
34742;BME280;20968;42.696;23.360;2023-04-27T13:18:04;95102.25;;;15.07;35.10
34742;BME280;20968;42.696;23.360;2023-04-27T13:20:32;95097.53;;;14.80;35.79
34742;BME280;20968;42.696;23.360;2023-04-27T13:22:58;95094.03;;;14.69;35.07